Time;durP1;ratioP1;P1;durP2;ratioP2;P2;SDS_P1;SDS_P2;PMS_P1;PMS_P2;Temp;Humidity;BMP_temperature;BMP_pressure;BME280_temperature;BME280_humidity;BME280_pressure;Samples;Min_cycle;Max_cycle;Signal;HPM_P1;HPM_P2
2023/12/26 00:01:45;;;;;;;;;;;17.60;56.20;;;;;;5090845;28;19969;-67
2023/12/26 00:04:11;;;;;;;;;;;17.60;56.40;;;;;;5091263;28;19927;-67
2023/12/26 00:06:38;;;;;;;;;;;17.50;56.50;;;;;;5092117;28;19960;-67
2023/12/26 00:09:03;;;;;;;;;;;17.40;56.60;;;;;;5091184;28;19924;-67
2023/12/26 00:11:30;;;;;;;;;;;17.40;56.80;;;;;;5091182;28;20482;-67
2023/12/26 00:13:55;;;;;;;;;;;17.40;56.90;;;;;;5090898;28;20382;-68
2023/12/26 00:16:21;;;;;;;;;;;17.30;57.00;;;;;;5091064;28;19924;-68
2023/12/26 00:18:47;;;;;;;;;;;17.20;57.10;;;;;;5090868;28;19927;-68
2023/12/26 00:21:15;;;;;;;;;;;17.20;57.20;;;;;;5090682;28;19951;-68
2023/12/26 00:23:41;;;;;;;;;;;17.10;57.30;;;;;;5090717;28;19934;-67
2023/12/26 00:26:06;;;;;;;;;;;17.10;57.40;;;;;;5090544;28;20019;-67
2023/12/26 00:28:35;;;;;;;;;;;17.10;57.60;;;;;;5091970;28;19920;-67
2023/12/26 00:31:01;;;;;;;;;;;17.00;57.60;;;;;;5090519;28;20383;-67
2023/12/26 00:33:26;;;;;;;;;;;17.00;57.70;;;;;;5092083;28;19920;-67
2023/12/26 00:35:56;;;;;;;;;;;16.90;57.90;;;;;;5090845;28;20287;-67
2023/12/26 00:38:23;;;;;;;;;;;16.90;58.00;;;;;;5090521;28;19968;-67
2023/12/26 00:40:48;;;;;;;;;;;16.90;58.10;;;;;;5090354;28;20021;-67
2023/12/26 00:43:14;;;;;;;;;;;16.80;58.10;;;;;;5090470;28;19982;-69
2023/12/26 00:45:42;;;;;;;;;;;16.80;58.30;;;;;;5092021;28;19924;-69
2023/12/26 00:48:08;;;;;;;;;;;16.70;58.30;;;;;;5093247;28;19986;-69
2023/12/26 00:50:41;;;;;;;;;;;16.70;58.50;;;;;;5094554;28;19923;-69
2023/12/26 00:53:08;;;;;;;;;;;16.70;58.60;;;;;;5094040;28;19934;-69
2023/12/26 00:55:34;;;;;;;;;;;16.60;58.70;;;;;;5094455;28;20424;-69
2023/12/26 00:57:59;;;;;;;;;;;16.60;58.80;;;;;;5094286;28;19923;-69
2023/12/26 01:00:25;;;;;;;;;;;16.50;58.90;;;;;;5094410;28;19924;-69
2023/12/26 01:02:51;;;;;;;;;;;16.50;59.00;;;;;;5095331;28;19927;-69
2023/12/26 01:05:17;;;;;;;;;;;16.40;59.10;;;;;;5095376;28;19989;-69
2023/12/26 01:07:42;;;;;;;;;;;16.40;59.20;;;;;;5094178;28;19924;-69
2023/12/26 01:10:08;;;;;;;;;;;16.40;59.40;;;;;;5095899;28;19927;-69
2023/12/26 01:12:33;;;;;;;;;;;16.30;59.40;;;;;;5093734;28;19920;-69
2023/12/26 01:14:59;;;;;;;;;;;16.30;59.50;;;;;;5095193;28;19924;-68
2023/12/26 01:17:25;;;;;;;;;;;16.30;59.60;;;;;;5093987;28;19920;-69
2023/12/26 01:19:50;;;;;;;;;;;16.20;59.70;;;;;;5093708;28;19928;-69
2023/12/26 01:22:16;;;;;;;;;;;16.20;59.80;;;;;;5094876;28;19920;-69
2023/12/26 01:24:43;;;;;;;;;;;16.20;59.80;;;;;;5094800;28;19920;-69
2023/12/26 01:27:08;;;;;;;;;;;16.10;59.90;;;;;;5093558;28;19973;-69
2023/12/26 01:29:34;;;;;;;;;;;16.10;59.90;;;;;;5093711;28;20014;-69
2023/12/26 01:31:59;;;;;;;;;;;16.10;60.10;;;;;;5093451;28;19928;-69
2023/12/26 01:34:25;;;;;;;;;;;16.00;60.10;;;;;;5093296;28;19920;-69
2023/12/26 01:36:50;;;;;;;;;;;16.00;60.10;;;;;;5093727;28;20019;-69
2023/12/26 01:39:16;;;;;;;;;;;16.00;60.30;;;;;;5092914;28;19977;-69
2023/12/26 01:41:41;;;;;;;;;;;15.90;60.40;;;;;;5093162;28;19920;-69
2023/12/26 01:44:07;;;;;;;;;;;15.90;60.50;;;;;;5093489;28;19927;-69
2023/12/26 01:46:33;;;;;;;;;;;15.80;60.70;;;;;;5127806;27;20426;-70
2023/12/26 01:48:59;;;;;;;;;;;15.80;61.00;;;;;;5093128;28;20486;-69
2023/12/26 01:51:25;;;;;;;;;;;15.70;61.00;;;;;;5093050;28;19920;-73
2023/12/26 01:53:54;;;;;;;;;;;15.70;61.10;;;;;;5093197;28;19971;-69
2023/12/26 01:56:21;;;;;;;;;;;15.70;61.20;;;;;;5092957;28;20019;-69
2023/12/26 01:58:51;;;;;;;;;;;15.70;61.40;;;;;;5093112;28;19920;-69
2023/12/26 02:01:16;;;;;;;;;;;15.60;61.30;;;;;;5092811;28;20379;-69
2023/12/26 02:03:42;;;;;;;;;;;15.60;61.40;;;;;;5092649;28;19977;-70
2023/12/26 02:06:08;;;;;;;;;;;15.50;61.50;;;;;;5093271;28;19920;-69
2023/12/26 02:08:35;;;;;;;;;;;15.60;61.70;;;;;;5092960;28;19920;-70
2023/12/26 02:11:02;;;;;;;;;;;15.60;61.70;;;;;;5092660;28;19920;-69
2023/12/26 02:13:28;;;;;;;;;;;15.50;61.70;;;;;;5092891;28;19920;-69
2023/12/26 02:15:55;;;;;;;;;;;15.50;61.90;;;;;;5093722;28;19924;-70
2023/12/26 02:18:20;;;;;;;;;;;15.50;62.00;;;;;;5093812;28;19947;-70
2023/12/26 02:20:46;;;;;;;;;;;15.50;62.00;;;;;;5092399;28;20386;-70
2023/12/26 02:23:12;;;;;;;;;;;15.50;62.00;;;;;;5093602;28;19973;-69
2023/12/26 02:25:37;;;;;;;;;;;15.50;62.90;;;;;;5092667;28;19927;-69
2023/12/26 02:28:04;;;;;;;;;;;15.40;62.10;;;;;;5092654;28;20010;-70
2023/12/26 02:30:30;;;;;;;;;;;15.40;62.10;;;;;;5093505;28;19926;-70
2023/12/26 02:32:56;;;;;;;;;;;15.40;62.10;;;;;;5093605;28;19994;-69
2023/12/26 02:35:22;;;;;;;;;;;15.40;62.00;;;;;;5092194;28;19975;-69
2023/12/26 02:37:49;;;;;;;;;;;15.40;62.10;;;;;;5092231;28;19919;-69
2023/12/26 02:40:15;;;;;;;;;;;15.50;62.10;;;;;;5091725;28;19985;-71
2023/12/26 02:42:41;;;;;;;;;;;15.40;62.00;;;;;;5092140;28;20275;-69
2023/12/26 02:45:07;;;;;;;;;;;15.40;62.00;;;;;;5092012;28;19927;-69
2023/12/26 02:47:35;;;;;;;;;;;15.40;62.00;;;;;;5092433;28;19970;-70
2023/12/26 02:50:01;;;;;;;;;;;15.50;62.20;;;;;;5092237;28;20359;-69
2023/12/26 02:52:29;;;;;;;;;;;15.50;62.10;;;;;;5092156;28;19966;-70
2023/12/26 02:54:55;;;;;;;;;;;15.40;62.10;;;;;;5092145;28;20320;-70
2023/12/26 02:57:21;;;;;;;;;;;15.40;62.10;;;;;;5092082;28;19946;-70
2023/12/26 02:59:46;;;;;;;;;;;15.40;62.20;;;;;;5091720;28;19982;-69
2023/12/26 03:02:12;;;;;;;;;;;15.40;62.20;;;;;;5092871;28;19972;-69
2023/12/26 03:04:40;;;;;;;;;;;15.40;62.30;;;;;;5091959;28;20057;-70
2023/12/26 03:07:06;;;;;;;;;;;15.40;62.30;;;;;;5092936;28;19920;-69
2023/12/26 03:09:31;;;;;;;;;;;15.40;62.30;;;;;;5092461;28;19920;-68
2023/12/26 03:11:57;;;;;;;;;;;15.40;62.40;;;;;;5091918;28;19920;-67
2023/12/26 03:14:25;;;;;;;;;;;15.30;62.50;;;;;;5092983;28;20010;-69
2023/12/26 03:16:54;;;;;;;;;;;15.30;62.50;;;;;;5092862;28;19973;-68
2023/12/26 03:19:19;;;;;;;;;;;15.30;62.60;;;;;;5091369;28;19923;-68
2023/12/26 03:21:45;;;;;;;;;;;15.30;62.60;;;;;;5091455;28;19969;-68
2023/12/26 03:24:10;;;;;;;;;;;15.30;62.70;;;;;;5091535;28;19920;-67
2023/12/26 03:26:39;;;;;;;;;;;15.20;62.70;;;;;;5092843;28;19920;-68
2023/12/26 03:29:04;;;;;;;;;;;15.30;62.80;;;;;;5091418;28;20378;-67
2023/12/26 03:31:30;;;;;;;;;;;15.20;62.80;;;;;;5091213;28;19921;-68
2023/12/26 03:33:55;;;;;;;;;;;15.20;62.80;;;;;;5091731;28;19920;-67
2023/12/26 03:36:21;;;;;;;;;;;15.20;62.80;;;;;;5092523;28;19974;-68
2023/12/26 03:38:47;;;;;;;;;;;15.20;62.90;;;;;;5094434;28;19920;-67
2023/12/26 03:41:13;;;;;;;;;;;15.20;62.90;;;;;;5094614;28;19924;-68
2023/12/26 03:43:38;;;;;;;;;;;15.20;63.00;;;;;;5094488;28;20299;-67
2023/12/26 03:46:04;;;;;;;;;;;15.20;63.00;;;;;;5094543;28;19923;-68
2023/12/26 03:48:30;;;;;;;;;;;15.10;62.90;;;;;;5112823;28;19920;-67
2023/12/26 03:50:55;;;;;;;;;;;15.10;62.90;;;;;;5094731;28;19920;-67
2023/12/26 03:53:21;;;;;;;;;;;15.10;63.00;;;;;;5094438;28;20290;-68
2023/12/26 03:55:46;;;;;;;;;;;15.20;63.00;;;;;;5094709;28;19927;-68
2023/12/26 03:58:12;;;;;;;;;;;15.10;63.00;;;;;;5094336;28;19920;-67
2023/12/26 04:00:38;;;;;;;;;;;15.10;63.00;;;;;;5094490;28;19927;-68
2023/12/26 04:03:04;;;;;;;;;;;15.10;63.00;;;;;;5094326;28;19969;-67
2023/12/26 04:05:29;;;;;;;;;;;15.10;62.90;;;;;;5094643;28;19930;-68
2023/12/26 04:07:55;;;;;;;;;;;15.10;62.90;;;;;;5112607;28;19927;-67
2023/12/26 04:10:20;;;;;;;;;;;15.10;62.90;;;;;;5112524;28;19920;-67
2023/12/26 04:12:46;;;;;;;;;;;15.10;62.80;;;;;;5112801;28;19989;-67
2023/12/26 04:15:11;;;;;;;;;;;15.10;62.90;;;;;;5112594;28;19920;-67
2023/12/26 04:17:37;;;;;;;;;;;15.10;62.80;;;;;;5128336;28;19942;-68
2023/12/26 04:20:02;;;;;;;;;;;15.10;62.80;;;;;;5094283;28;20491;-67
2023/12/26 04:22:28;;;;;;;;;;;15.10;62.80;;;;;;5130485;27;20450;-67
2023/12/26 04:24:53;;;;;;;;;;;15.10;62.70;;;;;;5097650;28;19920;-67
2023/12/26 04:27:19;;;;;;;;;;;15.10;62.70;;;;;;5097986;28;19924;-67
2023/12/26 04:29:44;;;;;;;;;;;15.10;62.60;;;;;;5132489;27;19920;-67
2023/12/26 04:32:10;;;;;;;;;;;15.10;62.60;;;;;;5132612;27;19927;-67
2023/12/26 04:34:37;;;;;;;;;;;15.10;62.60;;;;;;5098254;28;20425;-67
2023/12/26 04:37:03;;;;;;;;;;;15.10;62.90;;;;;;5132174;27;19919;-67
2023/12/26 04:39:28;;;;;;;;;;;15.10;62.50;;;;;;5097649;28;20149;-67
2023/12/26 04:41:54;;;;;;;;;;;15.10;62.50;;;;;;5116007;28;19988;-67
2023/12/26 04:44:19;;;;;;;;;;;15.10;62.50;;;;;;5098027;28;19981;-68
2023/12/26 04:46:45;;;;;;;;;;;15.10;62.40;;;;;;5097703;28;19924;-68
2023/12/26 04:49:14;;;;;;;;;;;15.10;62.40;;;;;;5097729;28;19946;-67
2023/12/26 04:51:39;;;;;;;;;;;15.10;62.40;;;;;;5097609;28;19930;-68
2023/12/26 04:54:08;;;;;;;;;;;15.10;62.40;;;;;;5097569;28;19920;-67
2023/12/26 04:56:33;;;;;;;;;;;15.10;62.40;;;;;;5097273;28;20022;-68
2023/12/26 04:58:59;;;;;;;;;;;15.00;62.30;;;;;;5097770;28;19999;-68
2023/12/26 05:01:24;;;;;;;;;;;15.00;62.30;;;;;;5097284;28;19923;-67
2023/12/26 05:03:50;;;;;;;;;;;15.20;62.50;;;;;;5131852;27;19919;-67
2023/12/26 05:06:19;;;;;;;;;;;15.60;62.00;;;;;;5097250;28;19926;-67
2023/12/26 05:08:45;;;;;;;;;;;16.00;60.90;;;;;;5097420;28;20528;-68
2023/12/26 05:11:20;;;;;;;;;;;16.50;59.80;;;;;;5131616;27;20196;-67
2023/12/26 05:13:45;;;;;;;;;;;17.10;58.40;;;;;;5097506;28;20508;-67
2023/12/26 05:16:11;;;;;;;;;;;17.60;56.90;;;;;;5097078;28;20010;-67
2023/12/26 05:18:36;;;;;;;;;;;18.30;55.50;;;;;;5115758;28;19965;-68
2023/12/26 05:21:02;;;;;;;;;;;18.90;54.10;;;;;;5115327;28;19951;-67
2023/12/26 05:23:27;;;;;;;;;;;19.50;52.80;;;;;;5115352;28;19920;-66
2023/12/26 05:25:53;;;;;;;;;;;20.20;51.40;;;;;;5097078;28;19920;-67
2023/12/26 05:28:19;;;;;;;;;;;20.80;49.90;;;;;;5115437;28;19919;-67
2023/12/26 05:30:44;;;;;;;;;;;21.50;48.70;;;;;;5130919;27;19951;-67
2023/12/26 05:33:10;;;;;;;;;;;22.00;47.50;;;;;;5114889;28;19965;-67
2023/12/26 05:35:35;;;;;;;;;;;22.50;46.80;;;;;;5115114;28;20298;-67
2023/12/26 05:38:01;;;;;;;;;;;22.90;46.00;;;;;;5115139;28;20360;-67
2023/12/26 05:40:27;;;;;;;;;;;23.10;45.50;;;;;;5093314;28;20333;-67
2023/12/26 05:42:53;;;;;;;;;;;23.30;45.10;;;;;;5093168;28;20395;-67
2023/12/26 05:45:18;;;;;;;;;;;23.30;44.90;;;;;;5094506;28;19985;-67
2023/12/26 05:47:44;;;;;;;;;;;23.30;45.70;;;;;;5093309;28;19924;-67
2023/12/26 05:50:10;;;;;;;;;;;23.20;45.00;;;;;;5094383;28;19956;-67
2023/12/26 05:52:35;;;;;;;;;;;23.10;45.20;;;;;;5094704;28;19927;-68
2023/12/26 05:55:01;;;;;;;;;;;22.90;45.30;;;;;;5094253;28;19920;-67
2023/12/26 05:57:26;;;;;;;;;;;22.80;45.60;;;;;;5093177;28;19962;-67
2023/12/26 05:59:53;;;;;;;;;;;22.60;45.60;;;;;;5093111;28;19931;-67
2023/12/26 06:02:18;;;;;;;;;;;22.50;46.00;;;;;;5093131;28;20364;-66
2023/12/26 06:04:44;;;;;;;;;;;22.30;46.10;;;;;;5094065;28;19927;-67
2023/12/26 06:07:12;;;;;;;;;;;22.20;46.50;;;;;;5092705;28;20420;-66
2023/12/26 06:09:38;;;;;;;;;;;22.00;46.70;;;;;;5075935;28;19920;-66
2023/12/26 06:12:04;;;;;;;;;;;21.80;46.90;;;;;;5092878;28;19920;-66
2023/12/26 06:14:30;;;;;;;;;;;21.60;47.40;;;;;;5092571;28;19926;-67
2023/12/26 06:16:56;;;;;;;;;;;21.40;47.70;;;;;;5093862;28;19929;-67
2023/12/26 06:19:21;;;;;;;;;;;21.30;48.00;;;;;;5092487;28;19920;-68
2023/12/26 06:21:50;;;;;;;;;;;21.00;48.40;;;;;;5092502;28;19959;-69
2023/12/26 06:24:15;;;;;;;;;;;20.90;48.60;;;;;;5092808;28;20327;-66
2023/12/26 06:26:43;;;;;;;;;;;20.70;48.90;;;;;;5093758;28;20360;-67
2023/12/26 06:29:09;;;;;;;;;;;20.60;49.10;;;;;;5092301;28;19954;-67
2023/12/26 06:31:34;;;;;;;;;;;20.40;49.20;;;;;;5093645;28;19920;-67
2023/12/26 06:34:00;;;;;;;;;;;20.30;49.60;;;;;;5126392;27;20290;-67
2023/12/26 06:36:30;;;;;;;;;;;20.20;49.80;;;;;;5092512;28;20011;-66
2023/12/26 06:39:00;;;;;;;;;;;20.00;49.90;;;;;;5092060;28;19932;-67
2023/12/26 06:41:28;;;;;;;;;;;19.90;50.10;;;;;;5091933;28;20375;-66
2023/12/26 06:43:53;;;;;;;;;;;19.80;50.30;;;;;;5091862;28;19974;-67
2023/12/26 06:46:21;;;;;;;;;;;19.70;50.50;;;;;;5091914;28;19971;-66
2023/12/26 06:48:47;;;;;;;;;;;19.50;50.60;;;;;;5093253;28;19920;-67
2023/12/26 06:51:15;;;;;;;;;;;19.50;50.90;;;;;;5093370;28;19920;-67
2023/12/26 06:53:43;;;;;;;;;;;19.30;51.00;;;;;;5093103;28;20405;-67
2023/12/26 06:56:11;;;;;;;;;;;19.20;51.20;;;;;;5092223;28;19920;-66
2023/12/26 06:58:40;;;;;;;;;;;19.20;51.40;;;;;;5093259;28;19924;-66
2023/12/26 07:01:10;;;;;;;;;;;19.10;51.50;;;;;;5093131;28;19924;-67
2023/12/26 07:03:35;;;;;;;;;;;19.00;51.60;;;;;;5093133;28;20257;-66
2023/12/26 07:06:01;;;;;;;;;;;18.90;51.70;;;;;;5093339;28;19966;-67
2023/12/26 07:08:26;;;;;;;;;;;18.80;51.90;;;;;;5126639;27;20365;-66
2023/12/26 07:10:52;;;;;;;;;;;18.70;52.00;;;;;;5091661;28;20355;-67
2023/12/26 07:13:18;;;;;;;;;;;18.60;52.20;;;;;;5093000;28;19920;-66
2023/12/26 07:15:43;;;;;;;;;;;18.60;52.40;;;;;;5091722;28;20329;-66
2023/12/26 07:18:09;;;;;;;;;;;18.50;53.20;;;;;;5091840;28;19924;-67
2023/12/26 07:20:35;;;;;;;;;;;18.40;52.50;;;;;;5091873;28;20318;-67
2023/12/26 07:23:00;;;;;;;;;;;18.40;52.60;;;;;;5092126;28;19920;-66
2023/12/26 07:25:27;;;;;;;;;;;18.30;52.70;;;;;;5092616;28;19920;-66
2023/12/26 07:27:55;;;;;;;;;;;18.20;52.80;;;;;;5091599;28;19924;-67
2023/12/26 07:30:23;;;;;;;;;;;18.20;53.00;;;;;;5092561;28;20287;-67
2023/12/26 07:32:48;;;;;;;;;;;18.10;53.10;;;;;;5093210;28;20014;-67
2023/12/26 07:35:17;;;;;;;;;;;18.00;53.20;;;;;;5091522;28;20019;-66
2023/12/26 07:37:42;;;;;;;;;;;18.00;53.30;;;;;;5091216;28;19924;-67
2023/12/26 07:40:08;;;;;;;;;;;17.90;53.40;;;;;;5090847;28;19924;-66
2023/12/26 07:42:34;;;;;;;;;;;17.90;53.50;;;;;;5092384;28;19976;-68
2023/12/26 07:44:59;;;;;;;;;;;17.80;53.60;;;;;;5091422;28;19924;-67
2023/12/26 07:47:25;;;;;;;;;;;17.80;53.70;;;;;;5091424;28;19926;-70
2023/12/26 07:49:51;;;;;;;;;;;17.70;53.70;;;;;;5091518;28;19956;-69
2023/12/26 07:52:17;;;;;;;;;;;17.70;54.60;;;;;;5091201;28;20403;-69
2023/12/26 07:54:42;;;;;;;;;;;17.60;54.00;;;;;;5091059;28;19924;-68
2023/12/26 07:57:08;;;;;;;;;;;17.60;54.10;;;;;;5094397;28;19927;-69
2023/12/26 07:59:36;;;;;;;;;;;17.50;54.20;;;;;;5095105;28;19998;-70
2023/12/26 08:02:02;;;;;;;;;;;17.40;54.20;;;;;;5129609;27;20290;-70
2023/12/26 08:04:27;;;;;;;;;;;17.40;54.30;;;;;;5096510;28;20019;-69
2023/12/26 08:06:53;;;;;;;;;;;17.40;54.50;;;;;;5096426;28;19920;-69
2023/12/26 08:09:19;;;;;;;;;;;17.30;54.50;;;;;;5095367;28;20440;-70
2023/12/26 08:11:45;;;;;;;;;;;17.30;54.70;;;;;;5096267;28;19920;-69
2023/12/26 08:14:10;;;;;;;;;;;17.30;54.70;;;;;;5095028;28;19966;-69
2023/12/26 08:16:36;;;;;;;;;;;17.20;54.80;;;;;;5095304;28;19920;-70
2023/12/26 08:19:02;;;;;;;;;;;17.20;54.80;;;;;;5129611;27;19924;-70
2023/12/26 08:21:27;;;;;;;;;;;17.10;55.00;;;;;;5096024;28;20347;-70
2023/12/26 08:23:53;;;;;;;;;;;17.10;55.10;;;;;;5094867;28;19923;-69
2023/12/26 08:26:19;;;;;;;;;;;17.10;55.20;;;;;;5096136;28;20015;-70
2023/12/26 08:28:44;;;;;;;;;;;17.00;55.30;;;;;;5095962;28;20283;-68
2023/12/26 08:31:10;;;;;;;;;;;16.90;55.30;;;;;;5094921;28;19927;-69
2023/12/26 08:33:37;;;;;;;;;;;16.90;55.40;;;;;;5094877;28;19927;-69
2023/12/26 08:36:03;;;;;;;;;;;16.90;55.50;;;;;;5096027;28;20404;-69
2023/12/26 08:38:28;;;;;;;;;;;16.80;55.60;;;;;;5094493;28;19920;-69
2023/12/26 08:40:54;;;;;;;;;;;16.80;55.70;;;;;;5115722;28;20043;-69
2023/12/26 08:43:20;;;;;;;;;;;16.80;55.70;;;;;;5131750;27;19920;-70
2023/12/26 08:45:45;;;;;;;;;;;16.70;55.80;;;;;;5097871;28;19920;-70
2023/12/26 08:48:11;;;;;;;;;;;16.70;56.00;;;;;;5097980;28;19942;-69
2023/12/26 08:50:37;;;;;;;;;;;16.60;56.00;;;;;;5115927;28;19951;-69
2023/12/26 08:53:02;;;;;;;;;;;16.60;56.00;;;;;;5097699;28;20301;-68
2023/12/26 08:55:28;;;;;;;;;;;16.50;56.10;;;;;;5115846;28;19980;-70
2023/12/26 08:57:53;;;;;;;;;;;16.50;56.10;;;;;;5097493;28;19931;-68
2023/12/26 09:00:19;;;;;;;;;;;16.50;56.20;;;;;;5097511;28;19928;-70
2023/12/26 09:02:45;;;;;;;;;;;16.40;56.20;;;;;;5115845;28;19927;-70
2023/12/26 09:05:11;;;;;;;;;;;16.40;56.40;;;;;;5115811;28;20010;-69
2023/12/26 09:07:37;;;;;;;;;;;16.40;56.40;;;;;;5096764;28;19919;-69
2023/12/26 09:10:03;;;;;;;;;;;16.30;56.40;;;;;;5097480;28;19931;-69
2023/12/26 09:12:29;;;;;;;;;;;16.30;56.50;;;;;;5131643;27;20378;-69
2023/12/26 09:14:54;;;;;;;;;;;16.30;56.60;;;;;;5096952;28;20038;-70
2023/12/26 09:17:20;;;;;;;;;;;16.30;56.60;;;;;;5097577;28;19920;-69
2023/12/26 09:19:45;;;;;;;;;;;16.20;57.40;;;;;;5115299;28;19923;-69
2023/12/26 09:22:11;;;;;;;;;;;16.20;56.70;;;;;;5097427;28;19920;-69
2023/12/26 09:24:36;;;;;;;;;;;16.20;56.80;;;;;;5115299;28;19920;-69
2023/12/26 09:27:02;;;;;;;;;;;16.20;56.90;;;;;;5097283;28;19920;-69
2023/12/26 09:29:28;;;;;;;;;;;16.10;56.80;;;;;;5079959;28;20014;-70
2023/12/26 09:31:54;;;;;;;;;;;16.10;56.90;;;;;;5097091;28;20002;-68
2023/12/26 09:34:19;;;;;;;;;;;16.10;56.90;;;;;;5115316;28;19924;-69
2023/12/26 09:36:45;;;;;;;;;;;16.10;57.00;;;;;;5115015;28;19920;-69
2023/12/26 09:39:10;;;;;;;;;;;16.10;57.00;;;;;;5096586;28;19974;-69
2023/12/26 09:41:36;;;;;;;;;;;16.10;57.00;;;;;;5114797;28;19931;-69
2023/12/26 09:44:02;;;;;;;;;;;16.00;57.00;;;;;;5096803;28;19965;-69
2023/12/26 09:46:28;;;;;;;;;;;15.90;57.00;;;;;;5114800;28;19927;-70
2023/12/26 09:48:54;;;;;;;;;;;16.00;57.10;;;;;;5096545;28;19924;-70
2023/12/26 09:51:21;;;;;;;;;;;16.00;57.20;;;;;;5096747;28;19923;-69
2023/12/26 09:53:50;;;;;;;;;;;15.90;57.20;;;;;;5114774;28;20378;-68
2023/12/26 09:56:16;;;;;;;;;;;15.90;57.30;;;;;;5114660;28;19919;-69
2023/12/26 09:58:43;;;;;;;;;;;15.90;57.40;;;;;;5079866;28;19968;-69
2023/12/26 10:01:11;;;;;;;;;;;15.80;57.40;;;;;;5096213;28;19928;-69
2023/12/26 10:03:37;;;;;;;;;;;15.80;57.50;;;;;;5130745;27;19927;-69
2023/12/26 10:06:03;;;;;;;;;;;15.80;57.50;;;;;;5130668;27;19919;-69
2023/12/26 10:08:29;;;;;;;;;;;15.80;57.60;;;;;;5096531;28;19923;-69
2023/12/26 10:10:54;;;;;;;;;;;15.80;57.60;;;;;;5096087;28;19927;-68
2023/12/26 10:13:20;;;;;;;;;;;15.80;57.70;;;;;;5114311;28;19927;-67
2023/12/26 10:15:46;;;;;;;;;;;15.80;57.80;;;;;;5114750;28;20277;-68
2023/12/26 10:18:11;;;;;;;;;;;15.70;57.80;;;;;;5115007;28;20328;-69
2023/12/26 10:20:37;;;;;;;;;;;15.70;57.90;;;;;;5095363;28;20011;-67
2023/12/26 10:23:05;;;;;;;;;;;15.70;58.10;;;;;;5096412;28;19920;-68
2023/12/26 10:25:31;;;;;;;;;;;15.60;58.10;;;;;;5130212;27;19920;-67
2023/12/26 10:27:58;;;;;;;;;;;15.60;58.10;;;;;;5096706;28;19943;-68
2023/12/26 10:30:24;;;;;;;;;;;15.60;58.20;;;;;;5096005;28;20023;-68
2023/12/26 10:33:05;;;;;;;;;;;15.60;58.20;;;;;;5114724;28;19923;-67
2023/12/26 10:35:30;;;;;;;;;;;15.50;58.20;;;;;;5130056;27;19966;-67
2023/12/26 10:37:56;;;;;;;;;;;15.50;58.20;;;;;;5095679;28;19957;-67
2023/12/26 10:40:22;;;;;;;;;;;15.50;58.30;;;;;;5113507;28;19947;-67
2023/12/26 10:42:49;;;;;;;;;;;15.50;58.30;;;;;;5095326;28;19920;-67
2023/12/26 10:45:17;;;;;;;;;;;15.50;58.30;;;;;;5129914;27;19920;-67
2023/12/26 10:47:44;;;;;;;;;;;15.50;58.30;;;;;;5113785;28;20298;-68
2023/12/26 10:50:10;;;;;;;;;;;15.50;58.30;;;;;;5095240;28;20336;-68
2023/12/26 10:52:39;;;;;;;;;;;15.50;58.30;;;;;;5095241;28;20010;-67
2023/12/26 10:55:05;;;;;;;;;;;15.50;58.30;;;;;;5129749;27;20397;-67
2023/12/26 10:57:32;;;;;;;;;;;15.50;58.30;;;;;;5113586;28;19920;-68
2023/12/26 13:53:27;;;;;;;;;;;21.30;46.70;;;;;;5073005;28;20386;-67
2023/12/26 13:55:53;;;;;;;;;;;22.00;45.30;;;;;;5073296;28;20003;-66
2023/12/26 13:58:18;;;;;;;;;;;22.50;44.40;;;;;;5072984;28;20011;-67
2023/12/26 14:00:47;;;;;;;;;;;22.90;43.70;;;;;;5072895;28;20386;-67
2023/12/26 14:03:12;;;;;;;;;;;23.20;43.00;;;;;;5072665;28;20476;-66
2023/12/26 14:05:38;;;;;;;;;;;23.40;42.60;;;;;;5072639;28;19960;-66
2023/12/26 14:08:05;;;;;;;;;;;23.50;42.40;;;;;;5073984;28;19966;-67
2023/12/26 14:10:30;;;;;;;;;;;23.50;42.40;;;;;;5072950;28;19920;-66
2023/12/26 14:12:56;;;;;;;;;;;23.40;42.30;;;;;;5072573;28;19927;-66
2023/12/26 14:15:21;;;;;;;;;;;23.30;42.50;;;;;;5072876;28;20018;-66
2023/12/26 14:17:47;;;;;;;;;;;23.20;42.60;;;;;;5072500;28;20012;-67
2023/12/26 14:20:12;;;;;;;;;;;23.00;42.80;;;;;;5073769;28;19974;-67
2023/12/26 14:22:38;;;;;;;;;;;22.90;43.00;;;;;;5072906;28;19920;-66
2023/12/26 14:25:04;;;;;;;;;;;22.80;43.30;;;;;;5072358;28;19921;-67
2023/12/26 14:27:29;;;;;;;;;;;22.60;43.60;;;;;;5073097;28;20295;-66
2023/12/26 14:29:55;;;;;;;;;;;22.50;43.80;;;;;;5072357;28;19939;-66
2023/12/26 14:32:20;;;;;;;;;;;22.30;44.10;;;;;;5071677;28;20360;-67
2023/12/26 14:34:46;;;;;;;;;;;22.10;44.30;;;;;;5072112;28;19946;-66
2023/12/26 14:37:12;;;;;;;;;;;21.90;44.60;;;;;;5072080;28;19920;-67
2023/12/26 14:39:37;;;;;;;;;;;21.70;45.00;;;;;;5084742;28;19924;-66
2023/12/26 14:42:03;;;;;;;;;;;21.50;45.30;;;;;;5095668;28;20098;-66
2023/12/26 14:44:29;;;;;;;;;;;21.30;45.60;;;;;;5113598;28;19924;-66
2023/12/26 14:46:54;;;;;;;;;;;21.10;46.00;;;;;;5095833;28;19919;-66
2023/12/26 14:49:20;;;;;;;;;;;20.90;46.20;;;;;;5078437;28;19920;-67
2023/12/26 14:51:45;;;;;;;;;;;20.80;46.50;;;;;;5095775;28;19994;-66
2023/12/26 14:54:15;;;;;;;;;;;20.60;46.70;;;;;;5113602;28;20297;-66
2023/12/26 14:56:43;;;;;;;;;;;20.50;47.00;;;;;;5113558;28;19963;-66
2023/12/26 14:59:09;;;;;;;;;;;20.30;47.30;;;;;;5113429;28;20338;-66
2023/12/26 15:01:34;;;;;;;;;;;20.20;47.40;;;;;;5095270;28;19920;-66
2023/12/26 15:04:00;;;;;;;;;;;20.00;47.60;;;;;;5095420;28;19930;-67
2023/12/26 15:06:25;;;;;;;;;;;19.90;47.80;;;;;;5094529;28;20014;-67
2023/12/26 15:08:51;;;;;;;;;;;19.70;48.00;;;;;;5113681;28;20007;-67
2023/12/26 15:11:17;;;;;;;;;;;19.70;48.30;;;;;;5095500;28;19967;-67
2023/12/26 15:13:43;;;;;;;;;;;19.50;48.40;;;;;;5113337;28;19967;-67
2023/12/26 15:16:17;;;;;;;;;;;19.40;48.60;;;;;;5113078;28;20363;-67
2023/12/26 15:18:42;;;;;;;;;;;19.30;48.80;;;;;;5113175;28;19959;-67
2023/12/26 15:21:08;;;;;;;;;;;19.20;49.00;;;;;;5113148;28;19966;-67
2023/12/26 15:23:34;;;;;;;;;;;19.10;49.20;;;;;;5095221;28;20375;-67
2023/12/26 15:25:59;;;;;;;;;;;19.00;49.40;;;;;;5112962;28;20386;-67
2023/12/26 15:28:25;;;;;;;;;;;18.90;49.60;;;;;;5095080;28;19923;-67
2023/12/26 15:30:50;;;;;;;;;;;18.80;49.80;;;;;;5128946;27;20378;-67
2023/12/26 15:33:16;;;;;;;;;;;18.70;50.00;;;;;;5128806;27;19919;-66
2023/12/26 15:35:42;;;;;;;;;;;18.60;50.10;;;;;;5094716;28;19963;-66
2023/12/26 15:38:08;;;;;;;;;;;18.60;50.30;;;;;;5095066;28;20036;-66
2023/12/26 15:40:33;;;;;;;;;;;18.50;50.30;;;;;;5094393;28;19971;-67
2023/12/26 15:42:59;;;;;;;;;;;18.50;50.40;;;;;;5112925;28;19976;-67
2023/12/26 15:45:24;;;;;;;;;;;18.40;50.40;;;;;;5112852;28;19927;-67
2023/12/26 15:47:50;;;;;;;;;;;18.40;50.50;;;;;;5094475;28;19920;-68
2023/12/26 15:50:16;;;;;;;;;;;18.30;50.60;;;;;;5095175;28;19928;-67
2023/12/26 15:52:41;;;;;;;;;;;18.30;50.70;;;;;;5094791;28;20451;-67
2023/12/26 15:55:07;;;;;;;;;;;18.20;50.70;;;;;;5094514;28;19945;-67
2023/12/26 15:57:33;;;;;;;;;;;18.20;50.80;;;;;;5094759;28;19965;-67
2023/12/26 15:59:58;;;;;;;;;;;18.10;50.90;;;;;;5094824;28;20405;-67
2023/12/26 16:02:24;;;;;;;;;;;18.10;50.90;;;;;;5094663;28;19927;-67
2023/12/26 16:04:49;;;;;;;;;;;18.00;50.90;;;;;;5094373;28;19920;-67
2023/12/26 16:07:15;;;;;;;;;;;18.00;51.00;;;;;;5094680;28;19977;-67
2023/12/26 16:09:40;;;;;;;;;;;18.00;51.10;;;;;;5094798;28;19963;-67
2023/12/26 16:12:07;;;;;;;;;;;17.90;51.20;;;;;;5094605;28;20328;-67
2023/12/26 16:14:33;;;;;;;;;;;17.80;51.20;;;;;;5128290;28;20363;-67
2023/12/26 16:16:59;;;;;;;;;;;17.80;51.40;;;;;;5095088;28;19924;-67
2023/12/26 16:19:24;;;;;;;;;;;17.70;51.40;;;;;;5116783;28;19951;-67
2023/12/26 16:21:50;;;;;;;;;;;17.70;51.60;;;;;;5117089;28;19923;-67
2023/12/26 16:24:15;;;;;;;;;;;17.60;51.70;;;;;;5098928;28;19978;-67
2023/12/26 16:26:43;;;;;;;;;;;17.60;51.90;;;;;;5116426;28;20424;-68
2023/12/26 16:29:10;;;;;;;;;;;17.50;51.90;;;;;;5098764;28;19926;-66
2023/12/26 16:31:36;;;;;;;;;;;17.40;52.00;;;;;;5098757;28;19927;-66
2023/12/26 16:34:02;;;;;;;;;;;17.40;52.10;;;;;;5099336;28;19926;-67
2023/12/26 16:36:27;;;;;;;;;;;17.40;52.20;;;;;;5116869;28;19920;-67
2023/12/26 16:38:53;;;;;;;;;;;17.30;52.30;;;;;;5097892;28;20030;-66
2023/12/26 16:41:18;;;;;;;;;;;17.20;52.30;;;;;;5098387;28;19935;-67
2023/12/26 16:43:46;;;;;;;;;;;17.20;52.50;;;;;;5132267;27;19927;-66
2023/12/26 16:46:12;;;;;;;;;;;17.20;52.60;;;;;;5098950;28;19920;-67
2023/12/26 16:48:38;;;;;;;;;;;17.10;52.60;;;;;;5116080;28;19919;-67
2023/12/26 16:51:05;;;;;;;;;;;17.10;52.80;;;;;;5132389;27;20431;-66
2023/12/26 16:53:30;;;;;;;;;;;17.10;52.90;;;;;;5097764;28;19920;-67
2023/12/26 16:55:56;;;;;;;;;;;17.00;53.00;;;;;;5097992;28;19942;-67
2023/12/26 16:58:21;;;;;;;;;;;17.00;53.80;;;;;;5115874;28;20430;-68
2023/12/26 17:00:47;;;;;;;;;;;16.90;53.10;;;;;;5115782;28;19924;-66
2023/12/26 17:03:13;;;;;;;;;;;16.90;53.20;;;;;;5097709;28;19942;-67